sensor_id;sensor_type;location;lat;lon;timestamp;temperature;humidity
11087;DHT22;5597;47.588;9.642;2024-03-02T00:00:09;6.20;99.90
11087;DHT22;5597;47.588;9.642;2024-03-02T00:02:41;6.20;99.90
11087;DHT22;5597;47.588;9.642;2024-03-02T00:05:07;6.20;99.90
11087;DHT22;5597;47.588;9.642;2024-03-02T00:07:33;6.20;99.90
11087;DHT22;5597;47.588;9.642;2024-03-02T00:10:00;6.20;99.90
11087;DHT22;5597;47.588;9.642;2024-03-02T00:12:25;6.20;99.90
11087;DHT22;5597;47.588;9.642;2024-03-02T00:14:51;6.20;99.90
11087;DHT22;5597;47.588;9.642;2024-03-02T00:17:25;6.20;99.90
11087;DHT22;5597;47.588;9.642;2024-03-02T00:19:53;6.20;99.90
11087;DHT22;5597;47.588;9.642;2024-03-02T00:22:18;6.20;99.90
11087;DHT22;5597;47.588;9.642;2024-03-02T00:24:44;6.20;99.90
11087;DHT22;5597;47.588;9.642;2024-03-02T00:27:12;6.20;99.90
11087;DHT22;5597;47.588;9.642;2024-03-02T00:29:40;6.20;99.90
11087;DHT22;5597;47.588;9.642;2024-03-02T00:32:16;6.20;99.90
11087;DHT22;5597;47.588;9.642;2024-03-02T00:34:41;6.20;99.90
11087;DHT22;5597;47.588;9.642;2024-03-02T00:37:07;6.10;99.90
11087;DHT22;5597;47.588;9.642;2024-03-02T00:39:33;6.10;99.90
11087;DHT22;5597;47.588;9.642;2024-03-02T00:41:59;6.10;99.90
11087;DHT22;5597;47.588;9.642;2024-03-02T00:44:25;6.10;99.90
11087;DHT22;5597;47.588;9.642;2024-03-02T00:46:52;6.10;99.90
11087;DHT22;5597;47.588;9.642;2024-03-02T00:49:23;6.10;99.90
11087;DHT22;5597;47.588;9.642;2024-03-02T00:51:52;6.00;99.90
11087;DHT22;5597;47.588;9.642;2024-03-02T00:54:23;6.00;99.90
11087;DHT22;5597;47.588;9.642;2024-03-02T00:56:51;6.00;99.90
11087;DHT22;5597;47.588;9.642;2024-03-02T00:59:17;6.00;99.90
11087;DHT22;5597;47.588;9.642;2024-03-02T01:01:43;6.00;99.90
11087;DHT22;5597;47.588;9.642;2024-03-02T01:04:09;6.00;99.90
11087;DHT22;5597;47.588;9.642;2024-03-02T01:06:35;6.00;99.90
11087;DHT22;5597;47.588;9.642;2024-03-02T01:09:01;6.00;99.90
11087;DHT22;5597;47.588;9.642;2024-03-02T01:11:28;6.00;99.90
11087;DHT22;5597;47.588;9.642;2024-03-02T01:13:53;6.00;99.90
11087;DHT22;5597;47.588;9.642;2024-03-02T01:16:19;6.00;99.90
11087;DHT22;5597;47.588;9.642;2024-03-02T01:18:45;6.00;99.90
11087;DHT22;5597;47.588;9.642;2024-03-02T01:21:11;6.00;99.90
11087;DHT22;5597;47.588;9.642;2024-03-02T01:23:36;6.00;99.90
11087;DHT22;5597;47.588;9.642;2024-03-02T01:26:02;6.00;99.90
11087;DHT22;5597;47.588;9.642;2024-03-02T01:28:27;6.00;99.90
11087;DHT22;5597;47.588;9.642;2024-03-02T01:30:53;6.10;99.90
11087;DHT22;5597;47.588;9.642;2024-03-02T01:33:19;6.10;99.90
11087;DHT22;5597;47.588;9.642;2024-03-02T01:35:45;6.10;99.90
11087;DHT22;5597;47.588;9.642;2024-03-02T01:38:11;6.10;99.90
11087;DHT22;5597;47.588;9.642;2024-03-02T01:40:38;6.10;99.90
11087;DHT22;5597;47.588;9.642;2024-03-02T01:43:05;6.10;99.90
11087;DHT22;5597;47.588;9.642;2024-03-02T01:45:30;6.10;99.90
11087;DHT22;5597;47.588;9.642;2024-03-02T01:47:56;6.10;99.90
11087;DHT22;5597;47.588;9.642;2024-03-02T01:50:32;6.10;99.90
11087;DHT22;5597;47.588;9.642;2024-03-02T01:52:59;6.10;99.90
11087;DHT22;5597;47.588;9.642;2024-03-02T01:55:25;6.20;99.90
11087;DHT22;5597;47.588;9.642;2024-03-02T01:57:51;6.20;99.90
11087;DHT22;5597;47.588;9.642;2024-03-02T02:00:18;6.20;99.90
11087;DHT22;5597;47.588;9.642;2024-03-02T02:02:44;6.20;99.90
11087;DHT22;5597;47.588;9.642;2024-03-02T02:05:10;6.20;99.90
11087;DHT22;5597;47.588;9.642;2024-03-02T02:07:37;6.20;99.90
11087;DHT22;5597;47.588;9.642;2024-03-02T02:10:03;6.20;99.90
11087;DHT22;5597;47.588;9.642;2024-03-02T02:12:28;6.20;99.90
11087;DHT22;5597;47.588;9.642;2024-03-02T02:14:55;6.10;99.90
11087;DHT22;5597;47.588;9.642;2024-03-02T02:17:21;6.10;99.90
11087;DHT22;5597;47.588;9.642;2024-03-02T02:19:46;6.10;99.90
11087;DHT22;5597;47.588;9.642;2024-03-02T02:22:13;6.10;99.90
11087;DHT22;5597;47.588;9.642;2024-03-02T02:24:41;6.10;99.90
11087;DHT22;5597;47.588;9.642;2024-03-02T02:27:08;6.10;99.90
11087;DHT22;5597;47.588;9.642;2024-03-02T02:29:34;6.10;99.90
11087;DHT22;5597;47.588;9.642;2024-03-02T02:31:59;6.00;99.90
11087;DHT22;5597;47.588;9.642;2024-03-02T02:34:25;6.10;99.90
11087;DHT22;5597;47.588;9.642;2024-03-02T02:36:50;6.00;99.90
11087;DHT22;5597;47.588;9.642;2024-03-02T02:39:18;6.00;99.90
11087;DHT22;5597;47.588;9.642;2024-03-02T02:41:45;6.10;99.90
11087;DHT22;5597;47.588;9.642;2024-03-02T02:44:10;6.10;99.90
11087;DHT22;5597;47.588;9.642;2024-03-02T02:46:38;6.10;99.90
11087;DHT22;5597;47.588;9.642;2024-03-02T02:49:04;6.00;99.90
11087;DHT22;5597;47.588;9.642;2024-03-02T02:51:29;6.10;99.90
11087;DHT22;5597;47.588;9.642;2024-03-02T02:53:55;6.10;99.90
11087;DHT22;5597;47.588;9.642;2024-03-02T02:56:21;6.10;99.90
11087;DHT22;5597;47.588;9.642;2024-03-02T02:58:46;6.10;99.90
11087;DHT22;5597;47.588;9.642;2024-03-02T03:01:12;6.10;99.90
11087;DHT22;5597;47.588;9.642;2024-03-02T03:03:37;6.10;99.90
11087;DHT22;5597;47.588;9.642;2024-03-02T03:06:03;6.10;99.90
11087;DHT22;5597;47.588;9.642;2024-03-02T03:08:29;6.10;99.90
11087;DHT22;5597;47.588;9.642;2024-03-02T03:10:55;6.10;99.90
11087;DHT22;5597;47.588;9.642;2024-03-02T03:13:20;6.10;99.90
11087;DHT22;5597;47.588;9.642;2024-03-02T03:15:46;6.00;99.90
11087;DHT22;5597;47.588;9.642;2024-03-02T03:18:11;6.00;99.90
11087;DHT22;5597;47.588;9.642;2024-03-02T03:20:37;6.00;99.90
11087;DHT22;5597;47.588;9.642;2024-03-02T03:23:03;6.00;99.90
11087;DHT22;5597;47.588;9.642;2024-03-02T03:25:29;6.00;99.90
11087;DHT22;5597;47.588;9.642;2024-03-02T03:27:55;6.00;99.90
11087;DHT22;5597;47.588;9.642;2024-03-02T03:30:21;6.00;99.90
11087;DHT22;5597;47.588;9.642;2024-03-02T03:32:46;6.00;99.90
11087;DHT22;5597;47.588;9.642;2024-03-02T03:35:14;6.00;99.90
11087;DHT22;5597;47.588;9.642;2024-03-02T03:37:41;6.00;99.90
11087;DHT22;5597;47.588;9.642;2024-03-02T03:40:07;6.00;99.90
11087;DHT22;5597;47.588;9.642;2024-03-02T03:42:35;5.90;99.90
11087;DHT22;5597;47.588;9.642;2024-03-02T03:45:02;5.90;99.90
11087;DHT22;5597;47.588;9.642;2024-03-02T03:47:27;5.90;99.90
11087;DHT22;5597;47.588;9.642;2024-03-02T03:49:53;5.90;99.90
11087;DHT22;5597;47.588;9.642;2024-03-02T03:52:18;5.80;99.90
11087;DHT22;5597;47.588;9.642;2024-03-02T03:54:44;5.90;99.90
11087;DHT22;5597;47.588;9.642;2024-03-02T03:57:10;5.90;99.90
11087;DHT22;5597;47.588;9.642;2024-03-02T03:59:35;5.90;99.90
11087;DHT22;5597;47.588;9.642;2024-03-02T04:02:03;5.90;99.90
11087;DHT22;5597;47.588;9.642;2024-03-02T04:04:28;5.90;99.90
11087;DHT22;5597;47.588;9.642;2024-03-02T04:06:54;6.00;99.90
11087;DHT22;5597;47.588;9.642;2024-03-02T04:09:19;5.90;99.90
11087;DHT22;5597;47.588;9.642;2024-03-02T04:11:45;5.90;99.90
11087;DHT22;5597;47.588;9.642;2024-03-02T04:14:11;5.90;99.90
11087;DHT22;5597;47.588;9.642;2024-03-02T04:16:38;6.00;99.90
11087;DHT22;5597;47.588;9.642;2024-03-02T04:19:03;6.00;99.90
11087;DHT22;5597;47.588;9.642;2024-03-02T04:21:29;6.00;99.90
11087;DHT22;5597;47.588;9.642;2024-03-02T04:23:55;6.00;99.90
11087;DHT22;5597;47.588;9.642;2024-03-02T04:26:24;6.00;99.90
11087;DHT22;5597;47.588;9.642;2024-03-02T04:28:51;6.00;99.90
11087;DHT22;5597;47.588;9.642;2024-03-02T04:31:17;6.00;99.90
11087;DHT22;5597;47.588;9.642;2024-03-02T04:33:43;6.00;99.90
11087;DHT22;5597;47.588;9.642;2024-03-02T04:36:08;6.00;99.90
11087;DHT22;5597;47.588;9.642;2024-03-02T04:38:35;6.00;99.90
11087;DHT22;5597;47.588;9.642;2024-03-02T04:41:01;6.00;99.90
11087;DHT22;5597;47.588;9.642;2024-03-02T04:43:26;6.00;99.90
11087;DHT22;5597;47.588;9.642;2024-03-02T04:45:52;6.00;99.90
11087;DHT22;5597;47.588;9.642;2024-03-02T04:48:18;6.00;99.90
11087;DHT22;5597;47.588;9.642;2024-03-02T04:50:44;6.00;99.90
11087;DHT22;5597;47.588;9.642;2024-03-02T04:53:10;6.00;99.90
11087;DHT22;5597;47.588;9.642;2024-03-02T04:55:35;6.00;99.90
11087;DHT22;5597;47.588;9.642;2024-03-02T04:58:07;6.00;99.90
11087;DHT22;5597;47.588;9.642;2024-03-02T05:00:33;6.00;99.90
11087;DHT22;5597;47.588;9.642;2024-03-02T05:02:59;6.00;99.90
11087;DHT22;5597;47.588;9.642;2024-03-02T05:05:24;6.00;99.90
11087;DHT22;5597;47.588;9.642;2024-03-02T05:07:50;5.90;99.90
11087;DHT22;5597;47.588;9.642;2024-03-02T05:10:16;5.90;99.90
11087;DHT22;5597;47.588;9.642;2024-03-02T05:12:42;5.90;99.90
11087;DHT22;5597;47.588;9.642;2024-03-02T05:15:08;5.90;99.90
11087;DHT22;5597;47.588;9.642;2024-03-02T05:17:35;5.90;99.90
11087;DHT22;5597;47.588;9.642;2024-03-02T05:20:01;5.90;99.90
11087;DHT22;5597;47.588;9.642;2024-03-02T05:22:27;5.90;99.90
11087;DHT22;5597;47.588;9.642;2024-03-02T05:24:52;5.80;99.90
11087;DHT22;5597;47.588;9.642;2024-03-02T05:27:18;5.80;99.90
11087;DHT22;5597;47.588;9.642;2024-03-02T05:29:44;5.80;99.90
11087;DHT22;5597;47.588;9.642;2024-03-02T05:32:09;5.70;99.90
11087;DHT22;5597;47.588;9.642;2024-03-02T05:34:35;5.70;99.90
11087;DHT22;5597;47.588;9.642;2024-03-02T05:37:01;5.70;99.90
11087;DHT22;5597;47.588;9.642;2024-03-02T05:39:27;5.60;99.90
11087;DHT22;5597;47.588;9.642;2024-03-02T05:41:53;5.60;99.90
11087;DHT22;5597;47.588;9.642;2024-03-02T05:44:18;5.50;99.90
11087;DHT22;5597;47.588;9.642;2024-03-02T05:46:45;5.50;99.90
11087;DHT22;5597;47.588;9.642;2024-03-02T05:49:11;5.50;99.90
11087;DHT22;5597;47.588;9.642;2024-03-02T05:51:36;5.40;99.90
11087;DHT22;5597;47.588;9.642;2024-03-02T05:54:02;5.40;99.90
11087;DHT22;5597;47.588;9.642;2024-03-02T05:56:28;5.40;99.90
11087;DHT22;5597;47.588;9.642;2024-03-02T05:58:53;5.40;99.90
11087;DHT22;5597;47.588;9.642;2024-03-02T06:01:46;5.30;99.90
11087;DHT22;5597;47.588;9.642;2024-03-02T06:04:12;5.30;99.90
11087;DHT22;5597;47.588;9.642;2024-03-02T06:06:39;5.30;99.90
11087;DHT22;5597;47.588;9.642;2024-03-02T06:09:05;5.30;99.90
11087;DHT22;5597;47.588;9.642;2024-03-02T06:11:36;5.30;99.90
11087;DHT22;5597;47.588;9.642;2024-03-02T06:14:02;5.30;99.90
11087;DHT22;5597;47.588;9.642;2024-03-02T06:16:28;5.30;99.90
11087;DHT22;5597;47.588;9.642;2024-03-02T06:18:53;5.20;99.90
11087;DHT22;5597;47.588;9.642;2024-03-02T06:21:19;5.20;99.90
11087;DHT22;5597;47.588;9.642;2024-03-02T06:23:45;5.20;99.90
11087;DHT22;5597;47.588;9.642;2024-03-02T06:26:11;5.20;99.90
11087;DHT22;5597;47.588;9.642;2024-03-02T06:28:37;5.20;99.90
11087;DHT22;5597;47.588;9.642;2024-03-02T06:31:04;5.20;99.90
11087;DHT22;5597;47.588;9.642;2024-03-02T06:33:29;5.20;99.90
11087;DHT22;5597;47.588;9.642;2024-03-02T06:35:55;5.10;99.90
11087;DHT22;5597;47.588;9.642;2024-03-02T06:38:20;5.10;99.90
11087;DHT22;5597;47.588;9.642;2024-03-02T06:40:46;5.10;99.90
11087;DHT22;5597;47.588;9.642;2024-03-02T06:43:12;5.10;99.90
11087;DHT22;5597;47.588;9.642;2024-03-02T06:45:38;5.10;99.90
11087;DHT22;5597;47.588;9.642;2024-03-02T06:48:03;5.10;99.90
11087;DHT22;5597;47.588;9.642;2024-03-02T06:50:29;5.10;99.90
11087;DHT22;5597;47.588;9.642;2024-03-02T06:52:55;5.10;99.90
11087;DHT22;5597;47.588;9.642;2024-03-02T06:55:21;5.10;99.90
11087;DHT22;5597;47.588;9.642;2024-03-02T06:57:47;5.10;99.90
11087;DHT22;5597;47.588;9.642;2024-03-02T07:00:13;5.10;99.90
11087;DHT22;5597;47.588;9.642;2024-03-02T07:02:39;5.10;99.90
11087;DHT22;5597;47.588;9.642;2024-03-02T07:05:07;5.10;99.90
11087;DHT22;5597;47.588;9.642;2024-03-02T07:07:33;5.20;99.90
11087;DHT22;5597;47.588;9.642;2024-03-02T07:10:00;5.20;99.90
11087;DHT22;5597;47.588;9.642;2024-03-02T07:12:26;5.30;99.90
11087;DHT22;5597;47.588;9.642;2024-03-02T07:14:52;5.30;99.90
11087;DHT22;5597;47.588;9.642;2024-03-02T07:17:30;5.30;99.90
11087;DHT22;5597;47.588;9.642;2024-03-02T07:19:56;5.30;99.90
11087;DHT22;5597;47.588;9.642;2024-03-02T07:22:22;5.40;99.90
11087;DHT22;5597;47.588;9.642;2024-03-02T07:24:48;5.40;99.90
11087;DHT22;5597;47.588;9.642;2024-03-02T07:27:15;5.50;99.90
11087;DHT22;5597;47.588;9.642;2024-03-02T07:29:41;5.50;99.90
11087;DHT22;5597;47.588;9.642;2024-03-02T07:32:08;5.50;99.90
11087;DHT22;5597;47.588;9.642;2024-03-02T07:34:37;5.60;99.90
11087;DHT22;5597;47.588;9.642;2024-03-02T07:37:03;5.60;99.90
11087;DHT22;5597;47.588;9.642;2024-03-02T07:39:29;5.70;99.90
11087;DHT22;5597;47.588;9.642;2024-03-02T07:41:55;5.70;99.90
11087;DHT22;5597;47.588;9.642;2024-03-02T07:44:21;5.80;99.90
11087;DHT22;5597;47.588;9.642;2024-03-02T07:46:47;5.80;99.90
11087;DHT22;5597;47.588;9.642;2024-03-02T07:49:15;5.90;99.90
11087;DHT22;5597;47.588;9.642;2024-03-02T07:51:41;6.00;99.90
11087;DHT22;5597;47.588;9.642;2024-03-02T07:54:07;6.00;99.90
11087;DHT22;5597;47.588;9.642;2024-03-02T07:56:33;6.10;99.90
11087;DHT22;5597;47.588;9.642;2024-03-02T07:58:58;6.20;99.90
11087;DHT22;5597;47.588;9.642;2024-03-02T08:01:30;6.30;99.90
11087;DHT22;5597;47.588;9.642;2024-03-02T08:04:00;6.40;99.90
11087;DHT22;5597;47.588;9.642;2024-03-02T08:06:27;6.40;99.90
11087;DHT22;5597;47.588;9.642;2024-03-02T08:08:54;6.50;99.90
11087;DHT22;5597;47.588;9.642;2024-03-02T08:11:20;6.60;99.90
11087;DHT22;5597;47.588;9.642;2024-03-02T08:13:46;6.70;99.90
11087;DHT22;5597;47.588;9.642;2024-03-02T08:16:11;6.80;99.90
11087;DHT22;5597;47.588;9.642;2024-03-02T08:18:37;6.90;99.90
11087;DHT22;5597;47.588;9.642;2024-03-02T08:21:03;7.00;99.90
11087;DHT22;5597;47.588;9.642;2024-03-02T08:23:29;7.10;99.90
11087;DHT22;5597;47.588;9.642;2024-03-02T08:25:54;7.10;99.90
11087;DHT22;5597;47.588;9.642;2024-03-02T08:28:20;7.10;99.90
11087;DHT22;5597;47.588;9.642;2024-03-02T08:30:45;7.20;99.90
11087;DHT22;5597;47.588;9.642;2024-03-02T08:33:11;7.20;99.90
11087;DHT22;5597;47.588;9.642;2024-03-02T08:35:37;7.30;99.90
11087;DHT22;5597;47.588;9.642;2024-03-02T08:38:03;7.40;99.90
11087;DHT22;5597;47.588;9.642;2024-03-02T08:40:30;7.40;99.90
11087;DHT22;5597;47.588;9.642;2024-03-02T08:42:55;7.50;99.90
11087;DHT22;5597;47.588;9.642;2024-03-02T08:45:21;7.50;99.90
11087;DHT22;5597;47.588;9.642;2024-03-02T08:47:47;7.50;99.90
11087;DHT22;5597;47.588;9.642;2024-03-02T08:50:12;7.50;99.90
11087;DHT22;5597;47.588;9.642;2024-03-02T08:52:38;7.60;99.90
11087;DHT22;5597;47.588;9.642;2024-03-02T08:55:04;7.60;99.90
11087;DHT22;5597;47.588;9.642;2024-03-02T08:57:31;7.70;99.90
11087;DHT22;5597;47.588;9.642;2024-03-02T08:59:57;7.90;99.90
11087;DHT22;5597;47.588;9.642;2024-03-02T09:02:22;8.00;99.90
11087;DHT22;5597;47.588;9.642;2024-03-02T09:04:49;8.20;99.90
11087;DHT22;5597;47.588;9.642;2024-03-02T09:07:15;8.40;99.90
11087;DHT22;5597;47.588;9.642;2024-03-02T09:09:40;8.40;99.90
11087;DHT22;5597;47.588;9.642;2024-03-02T09:12:07;8.60;99.90
11087;DHT22;5597;47.588;9.642;2024-03-02T09:14:33;8.70;99.90
11087;DHT22;5597;47.588;9.642;2024-03-02T09:16:58;8.90;99.90
11087;DHT22;5597;47.588;9.642;2024-03-02T09:19:24;9.10;99.90
11087;DHT22;5597;47.588;9.642;2024-03-02T09:21:49;9.40;99.90
11087;DHT22;5597;47.588;9.642;2024-03-02T09:24:15;9.70;99.90
11087;DHT22;5597;47.588;9.642;2024-03-02T09:26:41;10.10;99.90
11087;DHT22;5597;47.588;9.642;2024-03-02T09:29:06;10.40;99.90
11087;DHT22;5597;47.588;9.642;2024-03-02T09:31:32;10.60;99.90
11087;DHT22;5597;47.588;9.642;2024-03-02T09:33:58;10.80;99.90
11087;DHT22;5597;47.588;9.642;2024-03-02T09:36:23;11.00;99.90
11087;DHT22;5597;47.588;9.642;2024-03-02T09:38:49;11.30;99.90
11087;DHT22;5597;47.588;9.642;2024-03-02T09:41:15;11.50;99.90
11087;DHT22;5597;47.588;9.642;2024-03-02T09:43:41;11.80;99.90
11087;DHT22;5597;47.588;9.642;2024-03-02T09:46:09;12.00;99.90
11087;DHT22;5597;47.588;9.642;2024-03-02T09:48:35;12.10;99.90
11087;DHT22;5597;47.588;9.642;2024-03-02T09:51:01;12.20;99.90
11087;DHT22;5597;47.588;9.642;2024-03-02T09:53:31;12.20;99.90
11087;DHT22;5597;47.588;9.642;2024-03-02T09:55:57;12.20;99.90
11087;DHT22;5597;47.588;9.642;2024-03-02T09:58:23;12.20;99.90
11087;DHT22;5597;47.588;9.642;2024-03-02T10:00:49;12.20;99.90
11087;DHT22;5597;47.588;9.642;2024-03-02T10:03:15;12.10;99.90
11087;DHT22;5597;47.588;9.642;2024-03-02T10:05:40;12.20;99.90
11087;DHT22;5597;47.588;9.642;2024-03-02T10:08:06;12.20;99.90
11087;DHT22;5597;47.588;9.642;2024-03-02T10:10:41;12.20;99.90
11087;DHT22;5597;47.588;9.642;2024-03-02T10:13:13;12.00;99.90
11087;DHT22;5597;47.588;9.642;2024-03-02T10:15:40;11.70;99.90
11087;DHT22;5597;47.588;9.642;2024-03-02T10:18:12;11.50;99.90
11087;DHT22;5597;47.588;9.642;2024-03-02T10:20:39;11.40;99.90
11087;DHT22;5597;47.588;9.642;2024-03-02T10:23:19;11.20;99.90
11087;DHT22;5597;47.588;9.642;2024-03-02T10:25:46;11.20;99.90
11087;DHT22;5597;47.588;9.642;2024-03-02T10:28:11;11.20;99.90
11087;DHT22;5597;47.588;9.642;2024-03-02T10:30:37;11.20;99.90
11087;DHT22;5597;47.588;9.642;2024-03-02T10:33:03;11.20;99.90
11087;DHT22;5597;47.588;9.642;2024-03-02T10:35:31;11.30;99.90
11087;DHT22;5597;47.588;9.642;2024-03-02T10:37:59;11.40;99.90
11087;DHT22;5597;47.588;9.642;2024-03-02T10:40:26;11.50;99.90
11087;DHT22;5597;47.588;9.642;2024-03-02T10:42:52;11.50;99.90
11087;DHT22;5597;47.588;9.642;2024-03-02T10:45:19;11.60;99.90
11087;DHT22;5597;47.588;9.642;2024-03-02T10:47:47;11.70;99.90
11087;DHT22;5597;47.588;9.642;2024-03-02T10:50:12;11.80;99.90
11087;DHT22;5597;47.588;9.642;2024-03-02T10:52:38;11.90;99.90
11087;DHT22;5597;47.588;9.642;2024-03-02T10:55:05;12.00;99.90
11087;DHT22;5597;47.588;9.642;2024-03-02T10:57:53;12.10;99.90
11087;DHT22;5597;47.588;9.642;2024-03-02T11:00:20;12.30;99.90
11087;DHT22;5597;47.588;9.642;2024-03-02T11:03:02;12.50;99.90
11087;DHT22;5597;47.588;9.642;2024-03-02T11:05:33;12.70;99.90
11087;DHT22;5597;47.588;9.642;2024-03-02T11:08:18;12.80;99.90
11087;DHT22;5597;47.588;9.642;2024-03-02T11:10:58;13.00;99.90
11087;DHT22;5597;47.588;9.642;2024-03-02T11:13:33;13.10;99.90
11087;DHT22;5597;47.588;9.642;2024-03-02T11:16:05;13.30;99.90
11087;DHT22;5597;47.588;9.642;2024-03-02T11:18:32;13.40;99.90
11087;DHT22;5597;47.588;9.642;2024-03-02T11:20:59;13.60;99.90
11087;DHT22;5597;47.588;9.642;2024-03-02T11:23:35;13.80;99.90
11087;DHT22;5597;47.588;9.642;2024-03-02T11:26:19;13.90;99.90
11087;DHT22;5597;47.588;9.642;2024-03-02T11:28:46;13.80;99.90
11087;DHT22;5597;47.588;9.642;2024-03-02T11:31:11;13.80;99.90
11087;DHT22;5597;47.588;9.642;2024-03-02T11:33:37;13.80;99.90
11087;DHT22;5597;47.588;9.642;2024-03-02T11:36:03;14.00;99.90
11087;DHT22;5597;47.588;9.642;2024-03-02T11:38:31;14.00;99.90
11087;DHT22;5597;47.588;9.642;2024-03-02T11:40:59;14.10;99.90
11087;DHT22;5597;47.588;9.642;2024-03-02T11:43:28;14.10;99.90
11087;DHT22;5597;47.588;9.642;2024-03-02T11:45:58;14.00;99.90
11087;DHT22;5597;47.588;9.642;2024-03-02T11:48:25;13.90;99.90
11087;DHT22;5597;47.588;9.642;2024-03-02T11:50:51;13.90;99.90
11087;DHT22;5597;47.588;9.642;2024-03-02T11:53:17;13.90;99.90
11087;DHT22;5597;47.588;9.642;2024-03-02T11:55:44;13.80;99.90
11087;DHT22;5597;47.588;9.642;2024-03-02T11:58:14;13.80;99.90
11087;DHT22;5597;47.588;9.642;2024-03-02T12:00:40;13.80;99.90
11087;DHT22;5597;47.588;9.642;2024-03-02T12:03:07;13.90;99.90
11087;DHT22;5597;47.588;9.642;2024-03-02T12:05:34;13.90;99.90
11087;DHT22;5597;47.588;9.642;2024-03-02T12:08:05;14.00;99.90
11087;DHT22;5597;47.588;9.642;2024-03-02T12:10:32;14.20;99.90
11087;DHT22;5597;47.588;9.642;2024-03-02T12:13:05;14.40;99.90
11087;DHT22;5597;47.588;9.642;2024-03-02T12:15:34;14.60;99.90
11087;DHT22;5597;47.588;9.642;2024-03-02T12:18:01;14.70;99.90
11087;DHT22;5597;47.588;9.642;2024-03-02T12:20:29;14.80;99.90
11087;DHT22;5597;47.588;9.642;2024-03-02T12:22:57;14.90;99.90
11087;DHT22;5597;47.588;9.642;2024-03-02T12:25:24;14.80;99.90
11087;DHT22;5597;47.588;9.642;2024-03-02T12:27:51;14.70;99.90
11087;DHT22;5597;47.588;9.642;2024-03-02T12:30:20;14.60;99.90
11087;DHT22;5597;47.588;9.642;2024-03-02T12:32:46;14.40;99.90
11087;DHT22;5597;47.588;9.642;2024-03-02T12:35:12;14.30;99.90
11087;DHT22;5597;47.588;9.642;2024-03-02T12:37:47;14.20;99.90
11087;DHT22;5597;47.588;9.642;2024-03-02T12:40:14;14.10;99.90
11087;DHT22;5597;47.588;9.642;2024-03-02T12:42:40;14.10;99.90
11087;DHT22;5597;47.588;9.642;2024-03-02T12:45:07;14.10;99.90
11087;DHT22;5597;47.588;9.642;2024-03-02T12:47:37;14.00;99.90
11087;DHT22;5597;47.588;9.642;2024-03-02T12:50:06;14.00;99.90
11087;DHT22;5597;47.588;9.642;2024-03-02T12:52:33;13.90;99.90
11087;DHT22;5597;47.588;9.642;2024-03-02T12:55:06;13.80;99.90
11087;DHT22;5597;47.588;9.642;2024-03-02T12:57:33;13.70;99.90
11087;DHT22;5597;47.588;9.642;2024-03-02T13:02:28;13.70;99.90
11087;DHT22;5597;47.588;9.642;2024-03-02T13:04:55;13.70;99.90
11087;DHT22;5597;47.588;9.642;2024-03-02T13:07:21;13.70;99.90
11087;DHT22;5597;47.588;9.642;2024-03-02T13:09:50;13.70;99.90
11087;DHT22;5597;47.588;9.642;2024-03-02T13:12:17;13.70;99.90
11087;DHT22;5597;47.588;9.642;2024-03-02T13:14:43;13.70;99.90
11087;DHT22;5597;47.588;9.642;2024-03-02T13:17:11;13.80;99.90
11087;DHT22;5597;47.588;9.642;2024-03-02T13:19:50;14.00;99.90
11087;DHT22;5597;47.588;9.642;2024-03-02T13:22:16;14.10;99.90
11087;DHT22;5597;47.588;9.642;2024-03-02T13:24:42;14.10;99.90
11087;DHT22;5597;47.588;9.642;2024-03-02T13:27:08;14.10;99.90
11087;DHT22;5597;47.588;9.642;2024-03-02T13:29:33;14.00;99.90
11087;DHT22;5597;47.588;9.642;2024-03-02T13:31:59;14.00;99.90
11087;DHT22;5597;47.588;9.642;2024-03-02T13:34:25;14.00;99.90
11087;DHT22;5597;47.588;9.642;2024-03-02T13:36:50;13.90;99.90
11087;DHT22;5597;47.588;9.642;2024-03-02T13:39:16;13.90;99.90
11087;DHT22;5597;47.588;9.642;2024-03-02T13:41:41;13.90;99.90
11087;DHT22;5597;47.588;9.642;2024-03-02T13:44:07;13.90;99.90
11087;DHT22;5597;47.588;9.642;2024-03-02T13:46:33;14.00;99.90
11087;DHT22;5597;47.588;9.642;2024-03-02T13:48:58;14.10;99.90
11087;DHT22;5597;47.588;9.642;2024-03-02T13:51:24;14.20;99.90
11087;DHT22;5597;47.588;9.642;2024-03-02T13:53:51;14.30;99.90
11087;DHT22;5597;47.588;9.642;2024-03-02T13:56:16;14.40;99.90
11087;DHT22;5597;47.588;9.642;2024-03-02T13:58:43;14.40;99.90
11087;DHT22;5597;47.588;9.642;2024-03-02T14:01:09;14.50;99.90
11087;DHT22;5597;47.588;9.642;2024-03-02T14:03:35;14.60;99.90
11087;DHT22;5597;47.588;9.642;2024-03-02T14:06:00;14.80;99.90
11087;DHT22;5597;47.588;9.642;2024-03-02T14:08:26;15.00;99.90
11087;DHT22;5597;47.588;9.642;2024-03-02T14:10:52;15.10;99.90
11087;DHT22;5597;47.588;9.642;2024-03-02T14:13:17;15.20;99.90
11087;DHT22;5597;47.588;9.642;2024-03-02T14:15:43;15.20;99.90
11087;DHT22;5597;47.588;9.642;2024-03-02T14:18:09;15.30;99.90
11087;DHT22;5597;47.588;9.642;2024-03-02T14:20:36;15.40;99.90
11087;DHT22;5597;47.588;9.642;2024-03-02T14:23:01;15.50;99.90
11087;DHT22;5597;47.588;9.642;2024-03-02T14:25:29;15.70;99.90
11087;DHT22;5597;47.588;9.642;2024-03-02T14:27:57;16.00;99.90
11087;DHT22;5597;47.588;9.642;2024-03-02T14:30:23;16.00;99.90
11087;DHT22;5597;47.588;9.642;2024-03-02T14:32:49;15.80;99.90
11087;DHT22;5597;47.588;9.642;2024-03-02T14:35:14;15.60;99.90
11087;DHT22;5597;47.588;9.642;2024-03-02T14:37:40;15.50;99.90
11087;DHT22;5597;47.588;9.642;2024-03-02T14:40:07;15.50;99.90
11087;DHT22;5597;47.588;9.642;2024-03-02T14:42:35;15.40;99.90
11087;DHT22;5597;47.588;9.642;2024-03-02T14:45:01;15.30;99.90
11087;DHT22;5597;47.588;9.642;2024-03-02T14:47:29;15.20;99.90
11087;DHT22;5597;47.588;9.642;2024-03-02T14:49:55;15.10;99.90
11087;DHT22;5597;47.588;9.642;2024-03-02T14:52:21;15.10;99.90
11087;DHT22;5597;47.588;9.642;2024-03-02T14:54:46;15.10;99.90
11087;DHT22;5597;47.588;9.642;2024-03-02T14:57:12;15.00;99.90
11087;DHT22;5597;47.588;9.642;2024-03-02T14:59:37;15.00;99.90
11087;DHT22;5597;47.588;9.642;2024-03-02T15:02:03;15.00;99.90
11087;DHT22;5597;47.588;9.642;2024-03-02T15:04:29;15.00;99.90
11087;DHT22;5597;47.588;9.642;2024-03-02T15:06:55;14.90;99.90
11087;DHT22;5597;47.588;9.642;2024-03-02T15:09:20;14.90;99.90
11087;DHT22;5597;47.588;9.642;2024-03-02T15:11:46;14.80;99.90
11087;DHT22;5597;47.588;9.642;2024-03-02T15:14:12;14.70;99.90
11087;DHT22;5597;47.588;9.642;2024-03-02T15:16:38;14.60;99.90
11087;DHT22;5597;47.588;9.642;2024-03-02T15:19:04;14.50;99.90
11087;DHT22;5597;47.588;9.642;2024-03-02T15:21:29;14.50;99.90
11087;DHT22;5597;47.588;9.642;2024-03-02T15:23:55;14.50;99.90
11087;DHT22;5597;47.588;9.642;2024-03-02T15:26:21;14.40;99.90
11087;DHT22;5597;47.588;9.642;2024-03-02T15:28:47;14.40;99.90
11087;DHT22;5597;47.588;9.642;2024-03-02T15:31:12;14.30;99.90
11087;DHT22;5597;47.588;9.642;2024-03-02T15:33:38;14.20;99.90
11087;DHT22;5597;47.588;9.642;2024-03-02T15:36:04;14.20;99.90
11087;DHT22;5597;47.588;9.642;2024-03-02T15:38:30;14.10;99.90
11087;DHT22;5597;47.588;9.642;2024-03-02T15:40:56;13.90;99.90
11087;DHT22;5597;47.588;9.642;2024-03-02T15:43:22;13.80;99.90
11087;DHT22;5597;47.588;9.642;2024-03-02T15:45:49;13.60;99.90
11087;DHT22;5597;47.588;9.642;2024-03-02T15:48:15;13.60;99.90
11087;DHT22;5597;47.588;9.642;2024-03-02T15:50:40;13.60;99.90
11087;DHT22;5597;47.588;9.642;2024-03-02T15:53:06;13.50;99.90